createdAt,value
2023-05-07T00:00:56.950Z,100939.99
2023-05-07T00:03:29.624Z,100939.33
2023-05-07T00:05:59.140Z,100943.13
2023-05-07T00:08:28.268Z,100939.34
2023-05-07T00:10:59.771Z,100940.55
2023-05-07T00:13:31.305Z,100941.22
2023-05-07T00:16:00.397Z,100939.80
2023-05-07T00:18:32.215Z,100945.34
2023-05-07T00:21:03.812Z,100941.40
2023-05-07T00:23:33.916Z,100943.31
2023-05-07T00:26:07.546Z,100944.85
2023-05-07T00:28:40.491Z,100946.05
2023-05-07T00:31:10.080Z,100941.85
2023-05-07T00:33:40.213Z,100941.64
2023-05-07T00:36:11.521Z,100943.18
2023-05-07T00:38:44.029Z,100945.11
2023-05-07T00:41:13.035Z,100947.23
2023-05-07T00:43:55.347Z,100955.53
2023-05-07T00:46:30.489Z,100959.36
2023-05-07T00:49:00.477Z,100954.66
2023-05-07T00:51:29.697Z,100959.84
2023-05-07T00:54:02.933Z,100960.67
2023-05-07T00:56:35.254Z,100963.06
2023-05-07T00:59:09.798Z,100964.11
2023-05-07T01:01:42.088Z,100964.67
2023-05-07T01:04:19.662Z,100962.77
2023-05-07T01:06:57.377Z,100961.86
2023-05-07T01:09:30.181Z,100968.96
2023-05-07T01:12:03.020Z,100968.11
2023-05-07T01:14:41.878Z,100964.94
2023-05-07T01:17:13.871Z,100968.02
2023-05-07T01:19:43.092Z,100967.63
2023-05-07T01:22:12.539Z,100968.48
2023-05-07T01:24:51.949Z,100968.63
2023-05-07T01:27:20.723Z,100970.89
2023-05-07T01:29:50.334Z,100966.73
2023-05-07T01:32:32.916Z,100964.63
2023-05-07T01:35:11.123Z,100969.27
2023-05-07T01:37:43.080Z,100976.00
2023-05-07T01:40:12.763Z,100976.90
2023-05-07T01:42:48.854Z,100976.73
2023-05-07T01:45:18.024Z,100979.04
2023-05-07T01:47:47.420Z,100982.67
2023-05-07T01:50:21.902Z,100987.19
2023-05-07T01:52:52.214Z,100981.34
2023-05-07T01:55:23.367Z,100986.05
2023-05-07T01:58:01.217Z,100990.23
2023-05-07T02:00:33.124Z,100986.29
2023-05-07T02:03:05.316Z,100987.69
2023-05-07T02:05:46.342Z,100988.60
2023-05-07T02:08:43.774Z,100992.29
2023-05-07T02:11:27.930Z,100994.35
2023-05-07T02:14:02.429Z,100991.00
2023-05-07T02:16:47.323Z,100989.75
2023-05-07T02:19:17.183Z,100992.17
2023-05-07T02:21:49.008Z,100988.92
2023-05-07T02:24:24.691Z,100991.55
2023-05-07T02:26:57.669Z,100991.06
2023-05-07T02:29:30.667Z,100995.75
2023-05-07T02:31:59.283Z,100995.56
2023-05-07T02:34:31.275Z,100992.62
2023-05-07T02:37:02.593Z,100991.93
2023-05-07T02:39:34.420Z,100990.18
2023-05-07T02:42:06.449Z,100992.55
2023-05-07T02:44:36.599Z,100994.81
2023-05-07T02:47:11.335Z,100996.72
2023-05-07T02:49:47.240Z,100997.79
2023-05-07T02:52:19.483Z,100996.27
2023-05-07T02:54:48.096Z,100994.36
2023-05-07T02:57:19.734Z,100996.27
2023-05-07T02:59:48.443Z,100999.86
2023-05-07T03:02:30.039Z,101006.91
2023-05-07T03:05:01.816Z,101006.76
2023-05-07T03:07:35.172Z,101006.92
2023-05-07T03:10:04.949Z,101008.29
2023-05-07T03:12:39.011Z,101006.13
2023-05-07T03:15:13.349Z,101008.05
2023-05-07T03:17:45.225Z,101011.84
2023-05-07T03:20:17.663Z,101015.31
2023-05-07T03:22:47.325Z,101018.92
2023-05-07T03:25:15.927Z,101025.47
2023-05-07T03:27:46.489Z,101032.38
2023-05-07T03:30:15.898Z,101038.23
2023-05-07T03:32:45.071Z,101037.21
2023-05-07T03:35:15.628Z,101036.74
2023-05-07T03:37:48.538Z,101038.80
2023-05-07T03:40:23.467Z,101038.17
2023-05-07T03:42:56.415Z,101038.69
2023-05-07T03:45:27.499Z,101038.73
2023-05-07T03:48:10.468Z,101042.36
2023-05-07T03:50:39.967Z,101043.91
2023-05-07T03:53:11.767Z,101047.55
2023-05-07T03:55:46.546Z,101053.42
2023-05-07T03:58:17.453Z,101053.91
2023-05-07T04:00:46.624Z,101056.67
2023-05-07T04:03:22.300Z,101058.60
2023-05-07T04:05:50.544Z,101061.38
2023-05-07T04:08:18.752Z,101058.42
2023-05-07T04:11:01.318Z,101062.71
2023-05-07T04:13:37.618Z,101067.05
2023-05-07T04:16:09.430Z,101071.64
2023-05-07T04:18:39.231Z,101074.57
2023-05-07T04:21:20.373Z,101077.30
2023-05-07T04:23:58.868Z,101080.19
2023-05-07T04:26:31.002Z,101082.94
2023-05-07T04:29:00.640Z,101083.77
2023-05-07T04:31:36.513Z,101087.19
2023-05-07T04:34:06.217Z,101096.85
2023-05-07T04:36:35.295Z,101101.00
2023-05-07T04:39:07.711Z,101104.11
2023-05-07T04:41:37.812Z,101105.65
2023-05-07T04:44:11.635Z,101109.63
2023-05-07T04:46:41.042Z,101113.10
2023-05-07T04:49:10.054Z,101115.50
2023-05-07T04:51:39.076Z,101113.76
2023-05-07T04:54:19.685Z,101111.86
2023-05-07T04:56:51.107Z,101119.48
2023-05-07T04:59:25.755Z,101123.14
2023-05-07T05:02:03.967Z,101128.00
2023-05-07T05:04:33.688Z,101131.98
2023-05-07T05:07:06.252Z,101134.20
2023-05-07T05:09:35.944Z,101132.98
2023-05-07T05:12:07.959Z,101133.95
2023-05-07T05:14:37.075Z,101130.30
2023-05-07T05:17:06.751Z,101127.59
2023-05-07T05:19:42.578Z,101124.78
2023-05-07T05:22:11.115Z,101125.89
2023-05-07T05:24:41.005Z,101128.97
2023-05-07T05:27:10.609Z,101131.48
2023-05-07T05:29:40.919Z,101134.39
2023-05-07T05:32:12.253Z,101134.73
2023-05-07T05:34:46.429Z,101135.86
2023-05-07T05:37:15.550Z,101139.48
2023-05-07T05:39:44.903Z,101149.16
2023-05-07T05:42:17.146Z,101151.39
2023-05-07T05:44:49.066Z,101156.95
2023-05-07T05:47:20.930Z,101157.79
2023-05-07T05:49:52.857Z,101165.02
2023-05-07T05:52:24.513Z,101167.64
2023-05-07T05:54:59.972Z,101165.31
2023-05-07T05:57:38.838Z,101164.40
2023-05-07T06:00:14.599Z,101169.23
2023-05-07T06:02:49.676Z,101174.95
2023-05-07T06:05:22.173Z,101176.52
2023-05-07T06:07:52.526Z,101176.54
2023-05-07T06:10:20.881Z,101181.76
2023-05-07T06:12:52.814Z,101186.96
2023-05-07T06:15:24.720Z,101192.54
2023-05-07T06:17:59.852Z,101194.24
2023-05-07T06:20:29.343Z,101194.20
2023-05-07T06:23:13.053Z,101195.63
2023-05-07T06:25:50.214Z,101191.63
2023-05-07T06:28:21.244Z,101190.42
2023-05-07T06:30:50.887Z,101195.91
2023-05-07T06:33:25.535Z,101197.55
2023-05-07T06:35:54.966Z,101201.28
2023-05-07T06:38:26.897Z,101204.54
2023-05-07T06:41:03.913Z,101204.81
2023-05-07T06:43:36.666Z,101202.20
2023-05-07T06:46:25.444Z,101204.95
2023-05-07T06:48:54.810Z,101209.14
2023-05-07T06:51:37.429Z,101210.06
2023-05-07T06:54:07.691Z,101209.88
2023-05-07T06:56:42.284Z,101211.40
2023-05-07T06:59:12.121Z,101208.08
2023-05-07T07:01:42.697Z,101212.74
2023-05-07T07:04:13.268Z,101216.72
2023-05-07T07:06:43.004Z,101218.38
2023-05-07T07:09:16.300Z,101215.89
2023-05-07T07:11:47.916Z,101218.55
2023-05-07T07:14:16.598Z,101224.17
2023-05-07T07:16:48.907Z,101224.98
2023-05-07T07:19:21.821Z,101227.55
2023-05-07T07:21:59.184Z,101223.19
2023-05-07T07:24:32.212Z,101223.81
2023-05-07T07:27:12.057Z,101226.49
2023-05-07T07:29:50.724Z,101226.63
2023-05-07T07:32:38.321Z,101229.66
2023-05-07T07:35:13.994Z,101230.86
2023-05-07T07:37:49.239Z,101233.67
2023-05-07T07:40:22.289Z,101235.98
2023-05-07T07:42:55.226Z,101237.22
2023-05-07T07:45:44.406Z,101245.42
2023-05-07T07:48:16.172Z,101250.69
2023-05-07T07:50:56.942Z,101256.50
2023-05-07T07:53:40.220Z,101260.29
2023-05-07T07:56:32.841Z,101257.11
2023-05-07T07:59:10.377Z,101255.11
2023-05-07T08:01:56.020Z,101255.39
2023-05-07T08:08:04.863Z,101268.66
2023-05-07T08:10:55.666Z,101275.20
2023-05-07T08:13:44.103Z,101284.14
2023-05-07T08:16:24.676Z,101285.91
2023-05-07T08:19:17.185Z,101285.30
2023-05-07T08:22:01.556Z,101288.54
2023-05-07T08:27:46.163Z,101295.31
2023-05-07T08:30:24.523Z,101291.48
2023-05-07T08:33:08.411Z,101289.64
2023-05-07T08:35:43.433Z,101291.88
2023-05-07T08:38:21.808Z,101293.48
2023-05-07T08:44:27.286Z,101295.67
2023-05-07T08:47:01.640Z,101301.71
2023-05-07T08:49:42.986Z,101302.06
2023-05-07T08:52:23.851Z,101300.31
2023-05-07T08:55:03.490Z,101299.14
2023-05-07T08:57:52.474Z,101300.44
2023-05-07T09:00:28.281Z,101302.02
2023-05-07T09:03:18.032Z,101305.86
2023-05-07T09:05:55.490Z,101305.50
2023-05-07T09:08:29.282Z,101311.42
2023-05-07T09:11:02.690Z,101316.52
2023-05-07T09:14:02.545Z,101322.04
2023-05-07T09:17:09.222Z,101324.09
2023-05-07T09:19:49.264Z,101322.46
2023-05-07T09:22:59.206Z,101329.73
2023-05-07T09:25:51.224Z,101334.02
2023-05-07T09:28:34.240Z,101335.73
2023-05-07T09:31:05.796Z,101328.33
2023-05-07T09:33:47.085Z,101324.90
2023-05-07T09:36:28.717Z,101324.96
2023-05-07T09:39:16.407Z,101328.00
2023-05-07T09:42:04.419Z,101329.55
2023-05-07T09:44:52.553Z,101336.15
2023-05-07T09:47:43.579Z,101342.05
2023-05-07T09:51:05.083Z,101337.42
2023-05-07T09:53:53.229Z,101339.16
2023-05-07T09:56:38.244Z,101334.05
2023-05-07T09:59:39.278Z,101336.79
2023-05-07T10:02:43.310Z,101340.81
2023-05-07T10:05:21.406Z,101339.60
2023-05-07T10:08:07.389Z,101344.72
2023-05-07T10:10:58.664Z,101339.95
2023-05-07T10:14:20.400Z,101341.73
2023-05-07T10:17:16.538Z,101344.14
2023-05-07T10:19:56.538Z,101348.83
2023-05-07T10:23:02.197Z,101349.04
2023-05-07T10:25:38.263Z,101348.46
2023-05-07T10:28:14.262Z,101347.48
2023-05-07T10:31:10.666Z,101348.94
2023-05-07T10:33:54.184Z,101355.30
2023-05-07T10:36:54.385Z,101356.64
2023-05-07T10:39:34.368Z,101352.36
2023-05-07T10:53:02.927Z,101357.52
2023-05-07T10:55:46.425Z,101358.96
2023-05-07T10:59:41.010Z,101362.84
2023-05-07T11:03:03.369Z,101360.36
2023-05-07T11:06:31.739Z,101363.14
2023-05-07T11:09:12.572Z,101363.43
2023-05-07T11:11:52.581Z,101368.41
2023-05-07T11:15:12.318Z,101369.95
2023-05-07T11:18:00.772Z,101368.59
2023-05-07T11:20:53.945Z,101373.58
2023-05-07T11:23:36.357Z,101378.14
2023-05-07T11:26:17.548Z,101377.73
2023-05-07T11:28:48.387Z,101382.21
2023-05-07T11:31:33.691Z,101385.71
2023-05-07T11:34:07.982Z,101386.80
2023-05-07T11:36:47.907Z,101388.21
2023-05-07T11:39:57.716Z,101389.77
2023-05-07T11:42:36.364Z,101388.92
2023-05-07T11:45:21.694Z,101388.28
2023-05-07T11:47:52.978Z,101389.88
2023-05-07T11:50:32.902Z,101389.70
2023-05-07T11:53:16.756Z,101387.73
2023-05-07T11:55:59.174Z,101386.39
2023-05-07T11:58:37.920Z,101389.12
2023-05-07T12:01:17.353Z,101391.77
2023-05-07T12:03:55.424Z,101395.91
2023-05-07T12:06:39.776Z,101390.67
2023-05-07T12:09:29.119Z,101391.93
2023-05-07T12:12:05.454Z,101389.77
2023-05-07T12:14:43.766Z,101391.04
2023-05-07T12:17:21.780Z,101392.27
2023-05-07T12:19:54.475Z,101388.48
2023-05-07T12:22:30.725Z,101390.19
2023-05-07T12:25:05.955Z,101397.13
2023-05-07T12:27:54.962Z,101400.52
2023-05-07T12:30:37.886Z,101395.98
2023-05-07T12:33:20.089Z,101394.02
2023-05-07T12:35:54.343Z,101395.57
2023-05-07T12:38:29.275Z,101401.55
2023-05-07T12:41:14.269Z,101397.05
2023-05-07T12:43:47.860Z,101399.34
2023-05-07T12:46:19.315Z,101397.89
2023-05-07T12:49:26.419Z,101405.90
2023-05-07T12:52:01.822Z,101396.84
2023-05-07T12:54:36.656Z,101397.30
2023-05-07T12:57:16.935Z,101399.88
2023-05-07T12:59:46.437Z,101402.95
2023-05-07T13:02:56.584Z,101405.92
2023-05-07T13:06:12.261Z,101409.91
2023-05-07T13:09:08.940Z,101418.19
2023-05-07T13:11:39.664Z,101414.67
2023-05-07T13:14:13.881Z,101418.77
2023-05-07T13:16:49.784Z,101419.21
2023-05-07T13:19:21.644Z,101413.70
2023-05-07T13:21:55.939Z,101417.13
2023-05-07T13:24:37.532Z,101420.52
2023-05-07T13:27:14.139Z,101426.83
2023-05-07T13:30:05.261Z,101432.81
2023-05-07T13:32:37.851Z,101431.98
2023-05-07T13:35:11.674Z,101426.38
2023-05-07T13:37:54.285Z,101428.98
2023-05-07T13:40:31.554Z,101432.85
2023-05-07T13:43:15.295Z,101431.39
2023-05-07T13:45:47.737Z,101430.13
2023-05-07T13:48:22.336Z,101434.23
2023-05-07T13:50:51.948Z,101427.98
2023-05-07T13:53:25.079Z,101426.36
2023-05-07T13:55:55.009Z,101426.21
2023-05-07T13:58:26.537Z,101425.58
2023-05-07T14:00:56.663Z,101429.73
2023-05-07T14:03:26.532Z,101431.52
2023-05-07T14:05:56.587Z,101438.61
2023-05-07T14:08:35.944Z,101432.84
2023-05-07T14:11:14.625Z,101433.90
2023-05-07T14:13:50.089Z,101431.39
2023-05-07T14:16:27.191Z,101437.63
2023-05-07T14:19:13.739Z,101436.48
2023-05-07T14:21:47.293Z,101438.18
2023-05-07T14:24:34.428Z,101445.29
2023-05-07T14:27:15.877Z,101445.16
2023-05-07T14:29:57.864Z,101443.15
2023-05-07T14:32:35.361Z,101443.91
2023-05-07T14:35:09.592Z,101443.20
2023-05-07T14:38:29.186Z,101438.30
2023-05-07T14:41:15.843Z,101438.82
2023-05-07T14:43:50.679Z,101436.27
2023-05-07T14:46:22.589Z,101435.50
2023-05-07T14:48:52.082Z,101435.66
2023-05-07T14:51:25.470Z,101436.52
2023-05-07T14:53:55.826Z,101438.38
2023-05-07T14:56:41.205Z,101440.18
2023-05-07T14:59:12.117Z,101441.80
2023-05-07T15:01:57.636Z,101444.00
2023-05-07T15:04:28.151Z,101441.98
2023-05-07T15:07:01.037Z,101445.63
2023-05-07T15:09:39.952Z,101442.61
2023-05-07T15:12:16.487Z,101447.95
2023-05-07T15:14:49.006Z,101456.23
2023-05-07T15:17:19.778Z,101457.84
2023-05-07T15:20:12.153Z,101459.28
2023-05-07T15:23:07.659Z,101453.77
2023-05-07T15:25:46.154Z,101456.21
2023-05-07T15:28:19.573Z,101459.18
2023-05-07T15:30:52.173Z,101455.77
2023-05-07T15:33:23.161Z,101452.02
2023-05-07T15:41:05.966Z,101453.86
2023-05-07T15:44:23.095Z,101453.19
2023-05-07T15:47:11.541Z,101452.65
2023-05-07T15:49:48.245Z,101451.74
2023-05-07T15:52:36.075Z,101452.09
2023-05-07T15:55:35.779Z,101455.23
2023-05-07T15:58:06.801Z,101458.51
2023-05-07T16:00:40.510Z,101462.27
2023-05-07T16:03:14.913Z,101464.35
2023-05-07T16:05:57.744Z,101463.17
2023-05-07T16:08:31.002Z,101467.98
2023-05-07T16:11:11.963Z,101457.73
2023-05-07T16:13:50.881Z,101462.74
2023-05-07T16:16:41.537Z,101468.76
2023-05-07T16:19:32.076Z,101468.90
2023-05-07T16:22:15.566Z,101467.98
2023-05-07T16:25:11.319Z,101474.43
2023-05-07T16:28:05.940Z,101476.70
2023-05-07T16:30:53.716Z,101477.13
2023-05-07T16:33:28.258Z,101481.83
2023-05-07T16:36:04.628Z,101476.77
2023-05-07T16:38:39.485Z,101473.20
2023-05-07T16:41:23.276Z,101469.69
2023-05-07T16:43:54.261Z,101471.36
2023-05-07T16:46:27.538Z,101480.71
2023-05-07T16:49:03.515Z,101479.65
2023-05-07T16:51:38.872Z,101479.30
2023-05-07T16:54:12.566Z,101475.52
2023-05-07T16:56:43.714Z,101476.60
2023-05-07T16:59:18.051Z,101481.70
2023-05-07T17:01:59.194Z,101479.86
2023-05-07T17:04:29.644Z,101480.27
2023-05-07T17:07:01.382Z,101482.38
2023-05-07T17:09:33.674Z,101484.02
2023-05-07T17:12:09.622Z,101483.77
2023-05-07T17:14:40.498Z,101486.23
2023-05-07T17:17:13.237Z,101490.62
2023-05-07T17:19:48.175Z,101496.60
2023-05-07T17:22:22.793Z,101495.46
2023-05-07T17:25:09.979Z,101492.43
2023-05-07T17:27:51.261Z,101493.85
2023-05-07T17:30:34.726Z,101495.91
2023-05-07T17:33:21.126Z,101496.98
2023-05-07T17:36:34.142Z,101500.16
2023-05-07T17:39:25.373Z,101508.42
2023-05-07T17:41:56.136Z,101507.93
2023-05-07T17:44:25.883Z,101510.48
2023-05-07T17:47:09.266Z,101512.42
2023-05-07T17:50:03.291Z,101514.79
2023-05-07T17:52:37.315Z,101516.91
2023-05-07T17:55:08.372Z,101520.43
2023-05-07T17:57:37.586Z,101522.38
2023-05-07T18:00:12.410Z,101522.95
2023-05-07T18:03:27.134Z,101527.60
2023-05-07T18:05:59.950Z,101528.17
2023-05-07T18:08:47.613Z,101527.84
2023-05-07T18:11:28.404Z,101529.98
2023-05-07T18:14:00.718Z,101533.13
2023-05-07T18:16:33.770Z,101530.23
2023-05-07T18:19:07.905Z,101534.61
2023-05-07T18:21:45.099Z,101534.83
2023-05-07T18:24:20.431Z,101540.46
2023-05-07T18:27:14.210Z,101546.30
2023-05-07T18:30:05.188Z,101550.92
2023-05-07T18:32:37.124Z,101552.20
2023-05-07T18:35:11.193Z,101554.53
2023-05-07T18:37:44.965Z,101554.80
2023-05-07T18:40:25.547Z,101558.81
2023-05-07T18:43:03.388Z,101560.59
2023-05-07T18:45:54.542Z,101565.35
2023-05-07T18:48:35.663Z,101566.98
2023-05-07T18:51:23.632Z,101567.69
2023-05-07T18:53:54.257Z,101572.44
2023-05-07T18:56:28.347Z,101573.34
2023-05-07T18:59:04.821Z,101576.70
2023-05-07T19:01:39.540Z,101579.52
2023-05-07T19:04:30.099Z,101580.46
2023-05-07T19:07:11.055Z,101582.64
2023-05-07T19:10:16.116Z,101586.16
2023-05-07T19:13:07.411Z,101590.96
2023-05-07T19:15:45.638Z,101590.64
2023-05-07T19:18:26.393Z,101593.09
2023-05-07T19:21:00.649Z,101596.58
2023-05-07T19:23:34.736Z,101599.37
2023-05-07T19:26:22.015Z,101595.40
2023-05-07T19:29:16.416Z,101591.08
2023-05-07T19:31:56.899Z,101592.84
2023-05-07T19:34:43.376Z,101591.84
2023-05-07T19:37:28.080Z,101596.90
2023-05-07T19:40:05.873Z,101597.98
2023-05-07T19:42:37.670Z,101596.98
2023-05-07T19:45:16.268Z,101600.11
2023-05-07T19:47:50.995Z,101603.05
2023-05-07T19:50:35.462Z,101606.91
2023-05-07T19:53:10.907Z,101611.42
2023-05-07T19:55:47.970Z,101606.23
2023-05-07T19:58:21.239Z,101606.79
2023-05-07T20:00:55.396Z,101609.91
2023-05-07T20:03:31.314Z,101610.80
2023-05-07T20:06:07.812Z,101611.50
2023-05-07T20:08:37.118Z,101619.84
2023-05-07T20:11:13.371Z,101620.90
2023-05-07T20:13:49.424Z,101622.16
2023-05-07T20:16:22.693Z,101622.21
2023-05-07T20:19:00.381Z,101623.80
2023-05-07T20:21:40.874Z,101622.44
2023-05-07T20:24:37.416Z,101624.73
2023-05-07T20:27:38.516Z,101626.84
2023-05-07T20:30:23.862Z,101629.45
2023-05-07T20:36:20.463Z,101626.38
2023-05-07T20:39:09.308Z,101626.55
2023-05-07T20:42:26.793Z,101633.16
2023-05-07T20:45:03.367Z,101636.81
2023-05-07T20:47:44.593Z,101639.95
2023-05-07T20:50:16.747Z,101641.16
2023-05-07T20:52:51.640Z,101646.88
2023-05-07T20:55:27.484Z,101650.36
2023-05-07T20:57:56.338Z,101650.38
2023-05-07T21:00:26.018Z,101651.43
2023-05-07T21:02:56.720Z,101653.88
2023-05-07T21:05:27.380Z,101654.58
2023-05-07T21:07:58.870Z,101654.42
2023-05-07T21:10:27.825Z,101655.46
2023-05-07T21:13:04.074Z,101656.85
2023-05-07T21:15:34.137Z,101660.14
2023-05-07T21:18:06.783Z,101662.90
2023-05-07T21:20:40.717Z,101662.74
2023-05-07T21:23:13.106Z,101665.16
2023-05-07T21:25:46.837Z,101665.85
2023-05-07T21:28:18.315Z,101666.55
2023-05-07T21:30:47.063Z,101671.05
2023-05-07T21:33:19.036Z,101676.41
2023-05-07T21:35:51.254Z,101679.52
2023-05-07T21:38:29.762Z,101680.56
2023-05-07T21:41:05.174Z,101681.06
2023-05-07T21:43:39.270Z,101680.37
2023-05-07T21:46:11.598Z,101680.73
2023-05-07T21:48:41.024Z,101681.58
2023-05-07T21:51:14.632Z,101683.98
2023-05-07T21:53:52.514Z,101685.20
2023-05-07T21:56:27.796Z,101688.98
2023-05-07T21:59:08.262Z,101690.86
2023-05-07T22:01:48.255Z,101688.26
2023-05-07T22:04:20.950Z,101688.56
2023-05-07T22:06:50.767Z,101686.14
2023-05-07T22:09:24.590Z,101690.44
2023-05-07T22:11:55.050Z,101690.77
2023-05-07T22:14:24.349Z,101689.02
2023-05-07T22:16:56.488Z,101688.83
2023-05-07T22:19:30.993Z,101687.26
2023-05-07T22:22:03.372Z,101685.34
2023-05-07T22:24:36.633Z,101686.36
2023-05-07T22:27:08.730Z,101683.93
2023-05-07T22:29:38.462Z,101682.36
2023-05-07T22:32:12.764Z,101680.45
2023-05-07T22:34:43.299Z,101683.37
2023-05-07T22:37:12.627Z,101683.54
2023-05-07T22:39:53.721Z,101681.62
2023-05-07T22:42:25.352Z,101682.97
2023-05-07T22:44:58.731Z,101682.09
2023-05-07T22:47:40.797Z,101681.05
2023-05-07T22:50:12.585Z,101678.27
2023-05-07T22:52:44.564Z,101678.07
2023-05-07T22:55:17.740Z,101678.05
2023-05-07T22:57:47.973Z,101678.02
2023-05-07T23:00:17.996Z,101671.81
2023-05-07T23:02:47.827Z,101672.66
2023-05-07T23:05:23.023Z,101675.38
2023-05-07T23:07:52.414Z,101670.19
2023-05-07T23:10:27.626Z,101669.99
2023-05-07T23:13:00.109Z,101671.02
2023-05-07T23:15:32.747Z,101671.67
2023-05-07T23:18:02.572Z,101672.38
2023-05-07T23:20:34.127Z,101671.48
2023-05-07T23:23:06.514Z,101670.79
2023-05-07T23:25:38.792Z,101673.89
2023-05-07T23:28:13.491Z,101674.38
2023-05-07T23:30:49.898Z,101677.29
2023-05-07T23:33:27.066Z,101677.28
2023-05-07T23:36:06.117Z,101680.55
2023-05-07T23:38:41.917Z,101678.81
2023-05-07T23:41:12.834Z,101676.90
2023-05-07T23:43:41.847Z,101676.02
2023-05-07T23:46:12.961Z,101672.71
2023-05-07T23:48:42.590Z,101669.41
2023-05-07T23:51:21.843Z,101667.30
2023-05-07T23:53:50.767Z,101668.23
2023-05-07T23:56:20.827Z,101671.65
2023-05-07T23:59:01.116Z,101671.13
